sensor_id;sensor_type;location;lat;lon;timestamp;pressure;altitude;pressure_sealevel;temperature;humidity
75438;BME280;64015;49.392;15.582;2023-03-14T00:00:13;94088.91;;;5.91;75.30
75438;BME280;64015;49.392;15.582;2023-03-14T00:02:59;94064.94;;;5.79;76.00
75438;BME280;64015;49.392;15.582;2023-03-14T00:05:26;94063.16;;;5.75;75.85
75438;BME280;64015;49.392;15.582;2023-03-14T00:07:52;94057.72;;;5.71;76.57
75438;BME280;64015;49.392;15.582;2023-03-14T00:10:18;94057.44;;;5.73;75.90
75438;BME280;64015;49.392;15.582;2023-03-14T00:12:43;94048.38;;;5.65;76.74
75438;BME280;64015;49.392;15.582;2023-03-14T00:15:10;94058.75;;;5.70;76.49
75438;BME280;64015;49.392;15.582;2023-03-14T00:17:36;94069.72;;;5.72;76.62
75438;BME280;64015;49.392;15.582;2023-03-14T00:20:07;94070.72;;;5.76;75.57
75438;BME280;64015;49.392;15.582;2023-03-14T00:22:37;94075.06;;;5.91;74.99
75438;BME280;64015;49.392;15.582;2023-03-14T00:25:05;94068.19;;;5.95;75.16
75438;BME280;64015;49.392;15.582;2023-03-14T00:27:32;94091.91;;;6.04;74.82
75438;BME280;64015;49.392;15.582;2023-03-14T00:29:58;94087.88;;;5.87;75.07
75438;BME280;64015;49.392;15.582;2023-03-14T00:32:24;94095.72;;;5.87;75.46
75438;BME280;64015;49.392;15.582;2023-03-14T00:34:49;94099.06;;;5.69;76.58
75438;BME280;64015;49.392;15.582;2023-03-14T00:37:15;94083.63;;;5.68;76.30
75438;BME280;64015;49.392;15.582;2023-03-14T00:39:41;94085.28;;;5.58;76.82
75438;BME280;64015;49.392;15.582;2023-03-14T00:42:07;94069.41;;;5.55;77.53
75438;BME280;64015;49.392;15.582;2023-03-14T00:44:33;94058.47;;;5.48;77.57
75438;BME280;64015;49.392;15.582;2023-03-14T00:46:58;94026.59;;;5.46;77.60
75438;BME280;64015;49.392;15.582;2023-03-14T00:49:24;94015.13;;;5.42;78.43
75438;BME280;64015;49.392;15.582;2023-03-14T00:51:50;94002.66;;;5.34;78.53
75438;BME280;64015;49.392;15.582;2023-03-14T00:54:18;93995.34;;;5.31;79.02
75438;BME280;64015;49.392;15.582;2023-03-14T00:56:44;93990.19;;;5.25;78.98
75438;BME280;64015;49.392;15.582;2023-03-14T00:59:09;93983.94;;;5.21;79.42
75438;BME280;64015;49.392;15.582;2023-03-14T01:01:35;93995.19;;;5.22;79.39
75438;BME280;64015;49.392;15.582;2023-03-14T01:04:02;94004.81;;;5.27;78.93
75438;BME280;64015;49.392;15.582;2023-03-14T01:06:28;94067.59;;;5.21;79.40
75438;BME280;64015;49.392;15.582;2023-03-14T01:08:55;94177.81;;;5.34;79.07
75438;BME280;64015;49.392;15.582;2023-03-14T01:11:27;94243.06;;;5.49;77.73
75438;BME280;64015;49.392;15.582;2023-03-14T01:13:53;94248.22;;;5.59;76.95
75438;BME280;64015;49.392;15.582;2023-03-14T01:16:20;94203.09;;;5.77;75.20
75438;BME280;64015;49.392;15.582;2023-03-14T01:18:46;94209.56;;;5.90;74.92
75438;BME280;64015;49.392;15.582;2023-03-14T01:23:39;94282.00;;;5.94;74.49
75438;BME280;64015;49.392;15.582;2023-03-14T01:26:09;94251.31;;;6.05;73.61
75438;BME280;64015;49.392;15.582;2023-03-14T01:28:35;94220.22;;;5.98;74.09
75438;BME280;64015;49.392;15.582;2023-03-14T01:31:05;94222.31;;;5.96;75.03
75438;BME280;64015;49.392;15.582;2023-03-14T01:33:31;94242.91;;;5.74;75.20
75438;BME280;64015;49.392;15.582;2023-03-14T01:35:57;94239.03;;;5.67;75.95
75438;BME280;64015;49.392;15.582;2023-03-14T01:38:23;94212.13;;;5.61;76.58
75438;BME280;64015;49.392;15.582;2023-03-14T01:40:49;94185.72;;;5.62;76.40
75438;BME280;64015;49.392;15.582;2023-03-14T01:43:17;94199.19;;;5.46;77.33
75438;BME280;64015;49.392;15.582;2023-03-14T01:46:23;94154.81;;;5.36;77.69
75438;BME280;64015;49.392;15.582;2023-03-14T01:48:57;94156.03;;;5.09;78.81
75438;BME280;64015;49.392;15.582;2023-03-14T01:51:45;94163.97;;;4.94;80.31
75438;BME280;64015;49.392;15.582;2023-03-14T01:54:35;94173.25;;;4.66;81.53
75438;BME280;64015;49.392;15.582;2023-03-14T01:57:15;94148.34;;;4.84;81.13
75438;BME280;64015;49.392;15.582;2023-03-14T01:59:46;94134.59;;;4.68;81.29
75438;BME280;64015;49.392;15.582;2023-03-14T02:02:13;94124.50;;;4.52;81.67
75438;BME280;64015;49.392;15.582;2023-03-14T02:04:40;94105.81;;;4.34;82.64
75438;BME280;64015;49.392;15.582;2023-03-14T02:07:20;94091.13;;;4.43;82.14
75438;BME280;64015;49.392;15.582;2023-03-14T02:09:48;94097.97;;;4.29;83.19
75438;BME280;64015;49.392;15.582;2023-03-14T02:12:16;94113.69;;;4.24;83.64
75438;BME280;64015;49.392;15.582;2023-03-14T02:14:43;94090.47;;;4.18;83.72
75438;BME280;64015;49.392;15.582;2023-03-14T02:17:14;94086.56;;;4.15;83.63
75438;BME280;64015;49.392;15.582;2023-03-14T02:22:31;94062.88;;;4.06;84.59
75438;BME280;64015;49.392;15.582;2023-03-14T02:27:26;94030.44;;;4.18;83.28
75438;BME280;64015;49.392;15.582;2023-03-14T02:29:56;94042.22;;;4.10;83.34
75438;BME280;64015;49.392;15.582;2023-03-14T02:32:25;94067.00;;;4.12;83.83
75438;BME280;64015;49.392;15.582;2023-03-14T02:34:54;94059.97;;;4.13;83.61
75438;BME280;64015;49.392;15.582;2023-03-14T02:37:23;94059.94;;;4.18;83.95
75438;BME280;64015;49.392;15.582;2023-03-14T02:39:49;94075.59;;;4.18;83.21
75438;BME280;64015;49.392;15.582;2023-03-14T02:42:16;94094.47;;;3.95;84.65
75438;BME280;64015;49.392;15.582;2023-03-14T02:47:34;94093.47;;;3.81;85.50
75438;BME280;64015;49.392;15.582;2023-03-14T02:50:18;94088.78;;;3.88;85.84
75438;BME280;64015;49.392;15.582;2023-03-14T02:52:45;94085.63;;;3.86;85.80
75438;BME280;64015;49.392;15.582;2023-03-14T02:55:11;94101.22;;;4.01;85.32
75438;BME280;64015;49.392;15.582;2023-03-14T02:57:37;94106.66;;;4.09;84.29
75438;BME280;64015;49.392;15.582;2023-03-14T03:00:03;94098.75;;;4.30;82.94
75438;BME280;64015;49.392;15.582;2023-03-14T03:02:30;94080.75;;;4.33;83.60
75438;BME280;64015;49.392;15.582;2023-03-14T03:04:56;94072.94;;;4.28;83.75
75438;BME280;64015;49.392;15.582;2023-03-14T03:07:22;94070.81;;;4.35;83.20
75438;BME280;64015;49.392;15.582;2023-03-14T03:09:48;94073.19;;;4.27;83.26
75438;BME280;64015;49.392;15.582;2023-03-14T03:12:13;94067.22;;;4.21;82.95
75438;BME280;64015;49.392;15.582;2023-03-14T03:14:39;94064.09;;;4.19;83.21
75438;BME280;64015;49.392;15.582;2023-03-14T03:17:05;94068.31;;;4.15;82.72
75438;BME280;64015;49.392;15.582;2023-03-14T03:19:32;94068.31;;;4.10;83.95
75438;BME280;64015;49.392;15.582;2023-03-14T03:21:58;94042.78;;;4.02;84.69
75438;BME280;64015;49.392;15.582;2023-03-14T03:24:25;94038.66;;;3.96;84.07
75438;BME280;64015;49.392;15.582;2023-03-14T03:26:50;94040.47;;;3.90;85.28
75438;BME280;64015;49.392;15.582;2023-03-14T03:29:16;94035.81;;;3.82;85.88
75438;BME280;64015;49.392;15.582;2023-03-14T03:31:42;94039.22;;;3.83;87.14
75438;BME280;64015;49.392;15.582;2023-03-14T03:34:07;94032.22;;;3.78;86.23
75438;BME280;64015;49.392;15.582;2023-03-14T03:36:34;94039.25;;;3.72;86.76
75438;BME280;64015;49.392;15.582;2023-03-14T03:38:59;94029.13;;;3.66;88.73
75438;BME280;64015;49.392;15.582;2023-03-14T03:41:25;94016.78;;;3.87;87.38
75438;BME280;64015;49.392;15.582;2023-03-14T03:43:51;94005.78;;;3.95;86.07
75438;BME280;64015;49.392;15.582;2023-03-14T03:46:16;93995.59;;;3.98;86.87
75438;BME280;64015;49.392;15.582;2023-03-14T03:48:42;94008.19;;;3.86;87.83
75438;BME280;64015;49.392;15.582;2023-03-14T03:51:12;94016.56;;;3.78;87.27
75438;BME280;64015;49.392;15.582;2023-03-14T03:53:39;94019.53;;;3.51;89.28
75438;BME280;64015;49.392;15.582;2023-03-14T03:56:05;94011.22;;;3.34;89.79
75438;BME280;64015;49.392;15.582;2023-03-14T03:58:31;94022.16;;;3.41;89.62
75438;BME280;64015;49.392;15.582;2023-03-14T04:00:56;94035.19;;;3.26;91.03
75438;BME280;64015;49.392;15.582;2023-03-14T04:03:22;94057.63;;;3.22;91.38
75438;BME280;64015;49.392;15.582;2023-03-14T04:06:02;94052.41;;;3.27;91.34
75438;BME280;64015;49.392;15.582;2023-03-14T04:08:28;94027.91;;;3.28;92.31
75438;BME280;64015;49.392;15.582;2023-03-14T04:10:58;94014.34;;;3.36;91.08
75438;BME280;64015;49.392;15.582;2023-03-14T04:13:25;93997.53;;;3.72;88.39
75438;BME280;64015;49.392;15.582;2023-03-14T04:15:51;93999.31;;;3.82;88.01
75438;BME280;64015;49.392;15.582;2023-03-14T04:18:17;94003.25;;;3.80;86.91
75438;BME280;64015;49.392;15.582;2023-03-14T04:20:42;94009.56;;;3.68;89.01
75438;BME280;64015;49.392;15.582;2023-03-14T04:23:08;93994.63;;;3.84;88.08
75438;BME280;64015;49.392;15.582;2023-03-14T04:25:34;93996.19;;;3.85;88.64
75438;BME280;64015;49.392;15.582;2023-03-14T04:28:00;93989.66;;;3.83;88.76
75438;BME280;64015;49.392;15.582;2023-03-14T04:30:26;93976.88;;;3.86;89.14
75438;BME280;64015;49.392;15.582;2023-03-14T04:32:52;93994.31;;;3.91;87.89
75438;BME280;64015;49.392;15.582;2023-03-14T04:35:17;93984.44;;;3.88;88.87
75438;BME280;64015;49.392;15.582;2023-03-14T04:37:43;93968.63;;;4.13;86.61
75438;BME280;64015;49.392;15.582;2023-03-14T04:40:10;93966.28;;;4.11;85.87
75438;BME280;64015;49.392;15.582;2023-03-14T04:42:36;93970.78;;;4.06;86.51
75438;BME280;64015;49.392;15.582;2023-03-14T04:45:02;93973.00;;;3.79;88.85
75438;BME280;64015;49.392;15.582;2023-03-14T04:47:28;93985.50;;;3.82;88.79
75438;BME280;64015;49.392;15.582;2023-03-14T04:49:54;93990.19;;;3.85;89.08
75438;BME280;64015;49.392;15.582;2023-03-14T04:52:20;93989.09;;;3.91;89.42
75438;BME280;64015;49.392;15.582;2023-03-14T04:54:45;93976.84;;;3.96;88.92
75438;BME280;64015;49.392;15.582;2023-03-14T04:57:11;93968.63;;;4.13;86.97
75438;BME280;64015;49.392;15.582;2023-03-14T04:59:36;93966.28;;;4.17;87.41
75438;BME280;64015;49.392;15.582;2023-03-14T05:02:02;93977.97;;;4.24;86.93
75438;BME280;64015;49.392;15.582;2023-03-14T05:04:28;93980.59;;;4.19;86.94
75438;BME280;64015;49.392;15.582;2023-03-14T05:06:54;93976.16;;;4.20;86.63
75438;BME280;64015;49.392;15.582;2023-03-14T05:09:20;93979.56;;;4.20;86.72
75438;BME280;64015;49.392;15.582;2023-03-14T05:11:46;93976.63;;;4.27;86.63
75438;BME280;64015;49.392;15.582;2023-03-14T05:14:11;93973.88;;;4.08;87.31
75438;BME280;64015;49.392;15.582;2023-03-14T05:16:37;93971.50;;;4.17;86.79
75438;BME280;64015;49.392;15.582;2023-03-14T05:19:03;93975.31;;;4.29;86.06
75438;BME280;64015;49.392;15.582;2023-03-14T05:21:28;93969.09;;;4.25;86.89
75438;BME280;64015;49.392;15.582;2023-03-14T05:23:54;93964.91;;;4.24;86.82
75438;BME280;64015;49.392;15.582;2023-03-14T05:26:20;93961.84;;;4.12;86.99
75438;BME280;64015;49.392;15.582;2023-03-14T05:28:45;93951.34;;;4.22;86.94
75438;BME280;64015;49.392;15.582;2023-03-14T05:31:11;93965.66;;;4.30;86.58
75438;BME280;64015;49.392;15.582;2023-03-14T05:33:37;93974.50;;;4.34;86.02
75438;BME280;64015;49.392;15.582;2023-03-14T05:36:03;93977.75;;;4.16;87.20
75438;BME280;64015;49.392;15.582;2023-03-14T05:38:29;93970.47;;;4.12;87.63
75438;BME280;64015;49.392;15.582;2023-03-14T05:40:54;93973.53;;;4.25;87.00
75438;BME280;64015;49.392;15.582;2023-03-14T05:43:20;93978.53;;;4.16;87.29
75438;BME280;64015;49.392;15.582;2023-03-14T05:45:46;93989.78;;;4.11;88.50
75438;BME280;64015;49.392;15.582;2023-03-14T05:48:11;93994.22;;;4.11;87.99
75438;BME280;64015;49.392;15.582;2023-03-14T05:50:37;93977.75;;;4.16;88.19
75438;BME280;64015;49.392;15.582;2023-03-14T05:53:02;93974.25;;;4.35;87.13
75438;BME280;64015;49.392;15.582;2023-03-14T05:55:28;93974.72;;;4.37;86.58
75438;BME280;64015;49.392;15.582;2023-03-14T05:57:54;93967.94;;;4.41;87.34
75438;BME280;64015;49.392;15.582;2023-03-14T06:00:20;93947.94;;;4.61;86.40
75438;BME280;64015;49.392;15.582;2023-03-14T06:02:46;93950.75;;;4.64;86.12
75438;BME280;64015;49.392;15.582;2023-03-14T06:05:12;93954.66;;;4.67;86.36
75438;BME280;64015;49.392;15.582;2023-03-14T06:07:38;93957.09;;;4.58;86.41
75438;BME280;64015;49.392;15.582;2023-03-14T06:10:05;93958.66;;;4.59;86.61
75438;BME280;64015;49.392;15.582;2023-03-14T06:12:30;93972.44;;;4.65;86.31
75438;BME280;64015;49.392;15.582;2023-03-14T06:14:56;93969.34;;;4.63;86.44
75438;BME280;64015;49.392;15.582;2023-03-14T06:17:21;93966.44;;;4.64;86.10
75438;BME280;64015;49.392;15.582;2023-03-14T06:19:47;93952.03;;;4.72;85.62
75438;BME280;64015;49.392;15.582;2023-03-14T06:22:13;93952.44;;;4.84;86.04
75438;BME280;64015;49.392;15.582;2023-03-14T06:24:39;93956.84;;;4.88;85.29
75438;BME280;64015;49.392;15.582;2023-03-14T06:27:04;93953.91;;;4.95;85.69
75438;BME280;64015;49.392;15.582;2023-03-14T06:29:30;93949.69;;;4.99;84.63
75438;BME280;64015;49.392;15.582;2023-03-14T06:31:56;93948.16;;;4.93;84.48
75438;BME280;64015;49.392;15.582;2023-03-14T06:34:22;93950.66;;;5.08;83.65
75438;BME280;64015;49.392;15.582;2023-03-14T06:36:48;93953.88;;;5.00;84.08
75438;BME280;64015;49.392;15.582;2023-03-14T06:39:13;93943.97;;;4.97;85.11
75438;BME280;64015;49.392;15.582;2023-03-14T06:41:39;93953.88;;;5.00;84.63
75438;BME280;64015;49.392;15.582;2023-03-14T06:44:05;93952.94;;;4.86;84.75
75438;BME280;64015;49.392;15.582;2023-03-14T06:46:30;93953.09;;;5.00;84.10
75438;BME280;64015;49.392;15.582;2023-03-14T06:48:56;93955.09;;;5.08;84.77
75438;BME280;64015;49.392;15.582;2023-03-14T06:51:22;93962.59;;;5.14;85.41
75438;BME280;64015;49.392;15.582;2023-03-14T06:53:48;93955.72;;;5.23;84.95
75438;BME280;64015;49.392;15.582;2023-03-14T06:56:13;93958.81;;;5.25;84.99
75438;BME280;64015;49.392;15.582;2023-03-14T06:58:39;93958.22;;;5.34;84.39
75438;BME280;64015;49.392;15.582;2023-03-14T07:01:05;93960.13;;;5.28;85.01
75438;BME280;64015;49.392;15.582;2023-03-14T07:03:32;93962.66;;;5.33;85.06
75438;BME280;64015;49.392;15.582;2023-03-14T07:05:58;93961.22;;;5.22;84.70
75438;BME280;64015;49.392;15.582;2023-03-14T07:08:24;93952.06;;;5.19;85.45
75438;BME280;64015;49.392;15.582;2023-03-14T07:10:50;93952.53;;;5.27;84.20
75438;BME280;64015;49.392;15.582;2023-03-14T07:13:16;93947.09;;;5.23;84.85
75438;BME280;64015;49.392;15.582;2023-03-14T07:15:41;93939.06;;;5.38;84.24
75438;BME280;64015;49.392;15.582;2023-03-14T07:18:07;93937.69;;;5.46;83.89
75438;BME280;64015;49.392;15.582;2023-03-14T07:20:33;93940.63;;;5.63;83.82
75438;BME280;64015;49.392;15.582;2023-03-14T07:22:59;93946.78;;;5.72;83.23
75438;BME280;64015;49.392;15.582;2023-03-14T07:25:25;93950.06;;;5.83;82.56
75438;BME280;64015;49.392;15.582;2023-03-14T07:27:51;93958.88;;;5.92;82.60
75438;BME280;64015;49.392;15.582;2023-03-14T07:30:17;93950.38;;;6.00;82.66
75438;BME280;64015;49.392;15.582;2023-03-14T07:32:43;93951.34;;;6.04;82.58
75438;BME280;64015;49.392;15.582;2023-03-14T07:35:09;93954.69;;;6.10;82.62
75438;BME280;64015;49.392;15.582;2023-03-14T07:37:35;93947.25;;;6.35;84.69
75438;BME280;64015;49.392;15.582;2023-03-14T07:40:00;93942.06;;;6.82;84.24
75438;BME280;64015;49.392;15.582;2023-03-14T07:42:26;93949.03;;;7.19;82.93
75438;BME280;64015;49.392;15.582;2023-03-14T07:44:52;93962.75;;;7.43;81.97
75438;BME280;64015;49.392;15.582;2023-03-14T07:47:18;93963.53;;;7.57;80.84
75438;BME280;64015;49.392;15.582;2023-03-14T07:49:43;93954.19;;;7.65;80.34
75438;BME280;64015;49.392;15.582;2023-03-14T07:52:09;93956.25;;;7.68;80.49
75438;BME280;64015;49.392;15.582;2023-03-14T07:54:35;93958.38;;;7.66;80.41
75438;BME280;64015;49.392;15.582;2023-03-14T07:57:01;93944.06;;;7.72;80.37
75438;BME280;64015;49.392;15.582;2023-03-14T07:59:27;93953.44;;;7.78;80.60
75438;BME280;64015;49.392;15.582;2023-03-14T08:01:53;93966.34;;;7.74;80.96
75438;BME280;64015;49.392;15.582;2023-03-14T08:04:19;93968.06;;;7.79;81.23
75438;BME280;64015;49.392;15.582;2023-03-14T08:06:45;93974.78;;;7.85;81.46
75438;BME280;64015;49.392;15.582;2023-03-14T08:09:10;93973.13;;;7.89;81.39
75438;BME280;64015;49.392;15.582;2023-03-14T08:11:36;93971.47;;;7.93;81.50
75438;BME280;64015;49.392;15.582;2023-03-14T08:14:01;93964.38;;;7.94;81.96
75438;BME280;64015;49.392;15.582;2023-03-14T08:16:27;93981.28;;;8.01;81.67
75438;BME280;64015;49.392;15.582;2023-03-14T08:18:53;93989.66;;;8.03;82.17
75438;BME280;64015;49.392;15.582;2023-03-14T08:21:19;93991.09;;;8.09;82.08
75438;BME280;64015;49.392;15.582;2023-03-14T08:23:45;93988.84;;;8.16;81.99
75438;BME280;64015;49.392;15.582;2023-03-14T08:26:10;93984.28;;;8.22;81.96
75438;BME280;64015;49.392;15.582;2023-03-14T08:28:36;93984.44;;;8.25;82.00
75438;BME280;64015;49.392;15.582;2023-03-14T08:31:02;93992.22;;;8.31;81.78
75438;BME280;64015;49.392;15.582;2023-03-14T08:33:29;93981.16;;;8.34;81.66
75438;BME280;64015;49.392;15.582;2023-03-14T08:35:56;93974.22;;;8.38;81.77
75438;BME280;64015;49.392;15.582;2023-03-14T08:38:22;93984.75;;;8.38;81.51
75438;BME280;64015;49.392;15.582;2023-03-14T08:40:48;93968.03;;;8.34;82.10
75438;BME280;64015;49.392;15.582;2023-03-14T08:43:14;93952.81;;;8.31;82.61
75438;BME280;64015;49.392;15.582;2023-03-14T08:45:40;93938.53;;;8.37;81.93
75438;BME280;64015;49.392;15.582;2023-03-14T08:48:05;93959.72;;;8.40;82.35
75438;BME280;64015;49.392;15.582;2023-03-14T08:50:31;93969.75;;;8.38;83.45
75438;BME280;64015;49.392;15.582;2023-03-14T08:52:57;93980.75;;;8.40;83.10
75438;BME280;64015;49.392;15.582;2023-03-14T08:55:26;93981.25;;;8.42;83.10
75438;BME280;64015;49.392;15.582;2023-03-14T08:57:55;93994.53;;;8.46;83.16
75438;BME280;64015;49.392;15.582;2023-03-14T09:00:21;93997.66;;;8.48;82.22
75438;BME280;64015;49.392;15.582;2023-03-14T09:02:46;94008.03;;;8.53;82.28
75438;BME280;64015;49.392;15.582;2023-03-14T09:05:12;93995.59;;;8.58;82.11
75438;BME280;64015;49.392;15.582;2023-03-14T09:07:38;94009.03;;;8.57;82.22
75438;BME280;64015;49.392;15.582;2023-03-14T09:10:06;94005.69;;;8.65;81.67
75438;BME280;64015;49.392;15.582;2023-03-14T09:12:33;93998.16;;;8.72;81.63
75438;BME280;64015;49.392;15.582;2023-03-14T09:14:58;94011.69;;;8.79;81.24
75438;BME280;64015;49.392;15.582;2023-03-14T09:17:24;94015.38;;;8.78;80.81
75438;BME280;64015;49.392;15.582;2023-03-14T09:19:53;94022.28;;;8.74;81.02
75438;BME280;64015;49.392;15.582;2023-03-14T09:22:19;94022.34;;;8.83;80.28
75438;BME280;64015;49.392;15.582;2023-03-14T09:24:46;94023.13;;;8.83;80.48
75438;BME280;64015;49.392;15.582;2023-03-14T09:27:11;94022.19;;;8.79;80.38
75438;BME280;64015;49.392;15.582;2023-03-14T09:29:37;94031.69;;;8.89;78.98
75438;BME280;64015;49.392;15.582;2023-03-14T09:32:03;94018.84;;;8.87;79.81
75438;BME280;64015;49.392;15.582;2023-03-14T09:34:29;94013.94;;;8.94;79.16
75438;BME280;64015;49.392;15.582;2023-03-14T09:36:55;94008.63;;;9.08;79.01
75438;BME280;64015;49.392;15.582;2023-03-14T09:39:21;94002.84;;;8.97;79.37
75438;BME280;64015;49.392;15.582;2023-03-14T09:41:49;94000.13;;;9.11;78.00
75438;BME280;64015;49.392;15.582;2023-03-14T09:44:28;94017.94;;;9.14;77.73
75438;BME280;64015;49.392;15.582;2023-03-14T09:46:57;94009.13;;;9.19;78.11
75438;BME280;64015;49.392;15.582;2023-03-14T09:49:32;93988.81;;;9.11;77.93
75438;BME280;64015;49.392;15.582;2023-03-14T09:52:01;93987.25;;;9.10;78.42
75438;BME280;64015;49.392;15.582;2023-03-14T09:54:39;93973.88;;;9.20;77.37
75438;BME280;64015;49.392;15.582;2023-03-14T09:57:12;93962.75;;;9.23;76.90
75438;BME280;64015;49.392;15.582;2023-03-14T09:59:39;93969.56;;;9.24;77.30
75438;BME280;64015;49.392;15.582;2023-03-14T10:02:16;93979.06;;;9.33;76.39
75438;BME280;64015;49.392;15.582;2023-03-14T10:04:45;93982.09;;;9.27;77.24
75438;BME280;64015;49.392;15.582;2023-03-14T10:07:20;93998.63;;;9.19;76.89
75438;BME280;64015;49.392;15.582;2023-03-14T10:09:49;93995.63;;;9.12;77.30
75438;BME280;64015;49.392;15.582;2023-03-14T10:12:16;94014.25;;;9.15;77.20
75438;BME280;64015;49.392;15.582;2023-03-14T10:14:50;94011.13;;;9.13;77.72
75438;BME280;64015;49.392;15.582;2023-03-14T10:17:19;94010.22;;;9.18;77.74
75438;BME280;64015;49.392;15.582;2023-03-14T10:22:17;94022.28;;;9.19;77.14
75438;BME280;64015;49.392;15.582;2023-03-14T10:24:51;94015.06;;;9.24;77.39
75438;BME280;64015;49.392;15.582;2023-03-14T10:27:23;94016.63;;;9.25;77.76
75438;BME280;64015;49.392;15.582;2023-03-14T10:29:58;94029.59;;;9.22;77.81
75438;BME280;64015;49.392;15.582;2023-03-14T10:32:38;94034.72;;;9.27;76.80
75438;BME280;64015;49.392;15.582;2023-03-14T10:37:54;94011.03;;;9.27;79.11
75438;BME280;64015;49.392;15.582;2023-03-14T10:40:27;94007.06;;;9.38;77.39
75438;BME280;64015;49.392;15.582;2023-03-14T10:42:53;94012.56;;;9.50;77.13
75438;BME280;64015;49.392;15.582;2023-03-14T10:48:05;94019.44;;;9.60;76.69
75438;BME280;64015;49.392;15.582;2023-03-14T10:50:32;94017.00;;;9.72;75.45
75438;BME280;64015;49.392;15.582;2023-03-14T10:53:01;94016.56;;;9.79;75.52
75438;BME280;64015;49.392;15.582;2023-03-14T10:55:44;94012.53;;;9.72;74.26
75438;BME280;64015;49.392;15.582;2023-03-14T10:58:19;94012.56;;;9.81;73.72
75438;BME280;64015;49.392;15.582;2023-03-14T11:00:49;94016.78;;;9.91;73.25
75438;BME280;64015;49.392;15.582;2023-03-14T11:03:17;94014.75;;;9.96;72.28
75438;BME280;64015;49.392;15.582;2023-03-14T11:06:14;94005.44;;;9.82;71.80
75438;BME280;64015;49.392;15.582;2023-03-14T11:11:14;94005.75;;;9.89;73.05
75438;BME280;64015;49.392;15.582;2023-03-14T11:13:53;94009.22;;;10.06;72.73
75438;BME280;64015;49.392;15.582;2023-03-14T11:16:52;94000.81;;;9.96;71.18
75438;BME280;64015;49.392;15.582;2023-03-14T11:19:39;94002.66;;;9.87;70.56
75438;BME280;64015;49.392;15.582;2023-03-14T11:22:41;94008.38;;;9.89;70.94
75438;BME280;64015;49.392;15.582;2023-03-14T11:30:39;93992.97;;;9.73;71.33
75438;BME280;64015;49.392;15.582;2023-03-14T11:36:08;93974.44;;;9.87;71.46
75438;BME280;64015;49.392;15.582;2023-03-14T11:41:09;93985.63;;;9.93;68.96
75438;BME280;64015;49.392;15.582;2023-03-14T11:43:39;93992.91;;;9.96;69.91
75438;BME280;64015;49.392;15.582;2023-03-14T11:46:25;94001.56;;;9.88;69.88
75438;BME280;64015;49.392;15.582;2023-03-14T11:51:38;94007.34;;;9.98;69.68
75438;BME280;64015;49.392;15.582;2023-03-14T11:57:03;93980.06;;;10.03;67.93
75438;BME280;64015;49.392;15.582;2023-03-14T12:05:30;93971.41;;;10.11;66.47
75438;BME280;64015;49.392;15.582;2023-03-14T12:10:47;93986.13;;;10.12;66.64
75438;BME280;64015;49.392;15.582;2023-03-14T12:13:16;93983.19;;;10.05;67.34
75438;BME280;64015;49.392;15.582;2023-03-14T12:15:59;93977.63;;;10.15;67.49
75438;BME280;64015;49.392;15.582;2023-03-14T12:18:28;93983.66;;;10.07;67.72
75438;BME280;64015;49.392;15.582;2023-03-14T12:21:03;93985.03;;;10.04;67.56
75438;BME280;64015;49.392;15.582;2023-03-14T12:23:55;93982.09;;;10.06;66.90
75438;BME280;64015;49.392;15.582;2023-03-14T12:26:26;93981.00;;;10.07;67.06
75438;BME280;64015;49.392;15.582;2023-03-14T12:29:09;93964.13;;;10.08;66.20
75438;BME280;64015;49.392;15.582;2023-03-14T12:31:40;93967.84;;;10.07;66.36
75438;BME280;64015;49.392;15.582;2023-03-14T12:42:12;93974.97;;;10.06;66.54
75438;BME280;64015;49.392;15.582;2023-03-14T12:44:40;93968.91;;;10.06;66.82
75438;BME280;64015;49.392;15.582;2023-03-14T12:49:55;93957.91;;;10.13;66.00
75438;BME280;64015;49.392;15.582;2023-03-14T12:52:35;93959.38;;;10.19;65.65
75438;BME280;64015;49.392;15.582;2023-03-14T12:55:12;93962.16;;;10.31;64.94
75438;BME280;64015;49.392;15.582;2023-03-14T12:57:55;93959.81;;;10.29;65.33
75438;BME280;64015;49.392;15.582;2023-03-14T13:00:33;93980.59;;;10.22;64.39
75438;BME280;64015;49.392;15.582;2023-03-14T13:03:17;93978.69;;;10.05;64.55
75438;BME280;64015;49.392;15.582;2023-03-14T13:05:58;93956.84;;;10.05;64.27
75438;BME280;64015;49.392;15.582;2023-03-14T13:08:39;93969.38;;;9.99;64.68
75438;BME280;64015;49.392;15.582;2023-03-14T13:11:09;93966.88;;;9.94;64.39
75438;BME280;64015;49.392;15.582;2023-03-14T13:13:56;93976.63;;;9.94;64.67
75438;BME280;64015;49.392;15.582;2023-03-14T13:16:23;93968.25;;;9.92;64.84
75438;BME280;64015;49.392;15.582;2023-03-14T13:18:51;93973.41;;;9.97;64.47
75438;BME280;64015;49.392;15.582;2023-03-14T13:21:27;93987.16;;;9.94;64.65
75438;BME280;64015;49.392;15.582;2023-03-14T13:23:55;93977.59;;;9.98;64.14
75438;BME280;64015;49.392;15.582;2023-03-14T13:26:23;93982.22;;;10.01;64.66
75438;BME280;64015;49.392;15.582;2023-03-14T13:28:50;93974.31;;;10.01;64.35
75438;BME280;64015;49.392;15.582;2023-03-14T13:31:23;93979.13;;;9.99;64.81
75438;BME280;64015;49.392;15.582;2023-03-14T13:34:06;93977.72;;;10.01;64.68
75438;BME280;64015;49.392;15.582;2023-03-14T13:36:35;93970.59;;;10.02;65.19
75438;BME280;64015;49.392;15.582;2023-03-14T13:39:01;93974.78;;;10.03;64.05
75438;BME280;64015;49.392;15.582;2023-03-14T13:41:28;93978.84;;;10.00;64.02
75438;BME280;64015;49.392;15.582;2023-03-14T13:44:04;93992.00;;;10.00;64.53
75438;BME280;64015;49.392;15.582;2023-03-14T13:46:33;93990.13;;;10.01;64.56
75438;BME280;64015;49.392;15.582;2023-03-14T13:49:05;93980.50;;;9.88;64.48
75438;BME280;64015;49.392;15.582;2023-03-14T13:51:32;93968.72;;;9.94;64.94
75438;BME280;64015;49.392;15.582;2023-03-14T13:54:01;93962.66;;;9.85;65.20
75438;BME280;64015;49.392;15.582;2023-03-14T13:56:32;93964.41;;;9.89;64.68
75438;BME280;64015;49.392;15.582;2023-03-14T13:58:58;93966.59;;;10.04;65.48
75438;BME280;64015;49.392;15.582;2023-03-14T14:01:30;93971.25;;;9.99;65.03
75438;BME280;64015;49.392;15.582;2023-03-14T14:03:58;93963.47;;;10.02;65.23